createdAt,value
2023-04-29T00:00:31.941Z,9.711688
2023-04-29T00:01:30.928Z,9.711761
2023-04-29T00:02:32.009Z,9.711743
2023-04-29T00:03:32.127Z,9.711712
2023-04-29T00:04:31.683Z,9.711635
2023-04-29T00:05:30.961Z,9.711597
2023-04-29T00:06:30.971Z,9.711580
2023-04-29T00:07:30.895Z,9.711598
2023-04-29T00:08:30.877Z,9.711600
2023-04-29T00:09:30.871Z,9.711679
2023-04-29T00:10:30.862Z,9.711653
2023-04-29T00:11:30.834Z,9.711682
2023-04-29T00:12:32.608Z,9.711622
2023-04-29T00:13:30.823Z,9.711599
2023-04-29T00:14:30.841Z,9.711506
2023-04-29T00:15:30.815Z,9.711550
2023-04-29T00:16:30.856Z,9.711565
2023-04-29T00:17:30.830Z,9.711546
2023-04-29T00:18:30.783Z,9.711507
2023-04-29T00:19:30.782Z,9.711454
2023-04-29T00:20:30.798Z,9.711473
2023-04-29T01:05:32.209Z,9.711718
2023-04-29T01:06:32.193Z,9.711711
2023-04-29T01:07:32.203Z,9.711698
2023-04-29T01:08:32.205Z,9.711714
2023-04-29T01:09:32.189Z,9.711699
2023-04-29T01:10:32.775Z,9.711711
2023-04-29T01:11:32.157Z,9.711682
2023-04-29T01:12:32.160Z,9.711684
2023-04-29T01:13:32.148Z,9.711660
2023-04-29T01:14:32.832Z,9.711717
2023-04-29T01:15:32.147Z,9.711729
2023-04-29T01:16:32.187Z,9.711800
2023-04-29T01:17:32.208Z,9.711704
2023-04-29T01:18:32.101Z,9.711671
2023-04-29T01:19:32.104Z,9.711672
2023-04-29T01:20:32.097Z,9.711665
2023-04-29T01:21:32.098Z,9.711647
2023-04-29T01:22:32.089Z,9.711623
2023-04-29T01:23:35.734Z,9.711632
2023-04-29T01:24:32.059Z,9.711618
2023-04-29T01:25:32.055Z,9.711636
2023-04-29T01:26:32.033Z,9.711630
2023-04-29T01:27:34.743Z,9.711669
2023-04-29T01:28:32.025Z,9.711674
2023-04-29T01:29:32.005Z,9.711662
2023-04-29T01:30:32.041Z,9.711700
2023-04-29T01:31:32.100Z,9.711696
2023-04-29T01:32:34.477Z,9.711700
2023-04-29T01:33:33.005Z,9.711754
2023-04-29T01:34:31.975Z,9.711816
2023-04-29T01:35:32.043Z,9.711978
2023-04-29T01:36:32.729Z,9.712283
2023-04-29T01:37:31.953Z,9.711874
2023-04-29T01:38:35.701Z,9.711804
2023-04-29T01:39:31.930Z,9.711766
2023-04-29T01:40:32.849Z,9.711687
2023-04-29T01:41:32.057Z,9.711689
2023-04-29T01:42:34.719Z,9.711683
2023-04-29T01:43:31.921Z,9.711637
2023-04-29T01:44:31.886Z,9.711618
2023-04-29T01:45:31.877Z,9.711659
2023-04-29T01:46:31.911Z,9.711664
2023-04-29T01:47:31.955Z,9.711675
2023-04-29T01:48:31.871Z,9.711668
2023-04-29T01:49:31.860Z,9.711793
2023-04-29T01:50:31.850Z,9.711609
2023-04-29T01:51:33.834Z,9.711700
2023-04-29T01:52:31.920Z,9.711718
2023-04-29T01:53:31.848Z,9.711685
2023-04-29T01:54:31.881Z,9.711845
2023-04-29T01:55:31.807Z,9.711845
2023-04-29T01:56:31.798Z,9.711769
2023-04-29T01:57:31.783Z,9.711733
2023-04-29T01:58:31.811Z,9.711799
2023-04-29T01:59:31.897Z,9.711870
2023-04-29T02:00:31.805Z,9.711734
2023-04-29T02:01:31.780Z,9.711724
2023-04-29T02:02:31.875Z,9.711702
2023-04-29T02:03:31.957Z,9.711656
2023-04-29T02:04:31.788Z,9.711804
2023-04-29T02:05:31.728Z,9.711789
2023-04-29T02:06:31.735Z,9.711724
2023-04-29T02:07:31.706Z,9.711713
2023-04-29T02:08:31.699Z,9.711695
2023-04-29T02:09:31.700Z,9.711686
2023-04-29T02:10:33.340Z,9.711720
2023-04-29T02:11:31.716Z,9.711716
2023-04-29T02:12:31.664Z,9.711661
2023-04-29T02:13:31.673Z,9.711677
2023-04-29T02:14:31.690Z,9.711674
2023-04-29T02:15:31.662Z,9.711649
2023-04-29T02:16:31.668Z,9.711619
2023-04-29T02:17:31.663Z,9.711623
2023-04-29T02:18:31.642Z,9.711654
2023-04-29T02:19:31.647Z,9.711662
2023-04-29T02:20:31.612Z,9.711672
2023-04-29T02:21:31.605Z,9.711648
2023-04-29T02:22:31.605Z,9.711644
2023-04-29T02:23:31.589Z,9.711640
2023-04-29T02:24:31.585Z,9.711664
2023-04-29T02:25:31.594Z,9.711666
2023-04-29T02:26:31.579Z,9.711659
2023-04-29T02:27:31.563Z,9.711653
2023-04-29T02:28:31.545Z,9.711679
2023-04-29T02:29:31.543Z,9.711679
2023-04-29T02:30:31.534Z,9.711701
2023-04-29T02:31:31.628Z,9.711731
2023-04-29T02:32:31.554Z,9.711688
2023-04-29T02:33:31.522Z,9.711736
2023-04-29T02:34:31.507Z,9.711696
2023-04-29T02:35:31.495Z,9.711699
2023-04-29T02:36:31.487Z,9.711659
2023-04-29T02:37:31.484Z,9.711675
2023-04-29T02:38:31.487Z,9.711724
2023-04-29T02:39:31.501Z,9.711696
2023-04-29T02:40:31.487Z,9.711734
2023-04-29T02:41:31.445Z,9.711754
2023-04-29T02:42:31.488Z,9.711721
2023-04-29T02:43:31.457Z,9.711766
2023-04-29T02:44:31.427Z,9.711720
2023-04-29T02:45:31.421Z,9.711737
2023-04-29T02:46:31.425Z,9.711793
2023-04-29T02:47:31.506Z,9.711707
2023-04-29T02:48:33.329Z,9.711726
2023-04-29T02:49:31.392Z,9.711705
2023-04-29T02:50:31.371Z,9.711703
2023-04-29T02:51:31.382Z,9.711677
2023-04-29T02:52:31.374Z,9.711755
2023-04-29T02:53:31.362Z,9.711522
2023-04-29T02:54:31.346Z,9.711710
2023-04-29T02:55:31.333Z,9.711903
2023-04-29T02:56:31.333Z,9.711749
2023-04-29T02:57:32.315Z,9.711720
2023-04-29T02:58:31.302Z,9.711657
2023-04-29T02:59:31.314Z,9.711726
2023-04-29T03:00:31.292Z,9.711609
2023-04-29T03:01:31.337Z,9.711707
2023-04-29T03:02:31.372Z,9.711637
2023-04-29T03:03:31.354Z,9.711735
2023-04-29T03:04:31.293Z,9.711616
2023-04-29T03:05:31.400Z,9.711648
2023-04-29T03:06:31.256Z,9.712182
2023-04-29T03:07:31.245Z,9.711835
2023-04-29T03:08:31.234Z,9.711714
2023-04-29T03:09:31.275Z,9.711721
2023-04-29T03:10:31.265Z,9.711796
2023-04-29T03:11:31.207Z,9.711733
2023-04-29T03:12:31.201Z,9.711797
2023-04-29T03:13:31.187Z,9.711761
2023-04-29T03:14:32.854Z,9.711806
2023-04-29T03:15:31.201Z,9.711754
2023-04-29T03:16:31.224Z,9.711908
2023-04-29T03:17:31.202Z,9.711675
2023-04-29T03:18:31.202Z,9.711655
2023-04-29T03:19:31.145Z,9.711846
2023-04-29T03:20:31.132Z,9.711692
2023-04-29T03:21:31.142Z,9.711345
2023-04-29T03:22:31.119Z,9.711722
2023-04-29T03:23:31.101Z,9.712027
2023-04-29T03:24:31.121Z,9.712076
2023-04-29T03:25:31.106Z,9.711773
2023-04-29T03:26:31.097Z,9.711791
2023-04-29T03:27:31.072Z,9.711788
2023-04-29T03:28:31.071Z,9.711815
2023-04-29T03:29:31.061Z,9.711764
2023-04-29T03:30:31.796Z,9.711742
2023-04-29T03:31:31.063Z,9.711794
2023-04-29T03:32:31.085Z,9.711421
2023-04-29T03:33:31.028Z,9.711603
2023-04-29T03:34:31.015Z,9.711557
2023-04-29T03:35:31.020Z,9.711761
2023-04-29T03:36:31.031Z,9.711678
2023-04-29T03:37:31.009Z,9.711756
2023-04-29T03:38:30.992Z,9.711774
2023-04-29T03:39:30.979Z,9.711697
2023-04-29T03:40:30.970Z,9.711628
2023-04-29T03:41:30.957Z,9.711570
2023-04-29T03:42:30.969Z,9.711567
2023-04-29T03:43:30.949Z,9.711568
2023-04-29T03:44:30.957Z,9.711559
2023-04-29T03:45:32.852Z,9.711577
2023-04-29T03:46:31.009Z,9.711611
2023-04-29T03:47:30.955Z,9.711605
2023-04-29T03:48:30.911Z,9.711595
2023-04-29T03:49:30.894Z,9.711564
2023-04-29T03:50:30.900Z,9.711528
2023-04-29T03:51:30.924Z,9.711580
2023-04-29T03:52:30.913Z,9.711592
2023-04-29T03:53:30.883Z,9.711589
2023-04-29T03:54:30.868Z,9.711552
2023-04-29T03:55:30.865Z,9.711584
2023-04-29T03:56:30.850Z,9.711548
2023-04-29T03:57:30.827Z,9.711577
2023-04-29T03:58:30.833Z,9.711604
2023-04-29T03:59:30.838Z,9.711598
2023-04-29T04:00:30.826Z,9.711573
2023-04-29T04:01:30.802Z,9.711564
2023-04-29T04:02:30.932Z,9.711549
2023-04-29T04:03:30.871Z,9.711545
2023-04-29T04:04:30.926Z,9.711545
2023-04-29T04:05:30.778Z,9.711480
2023-04-29T04:06:30.757Z,9.711573
2023-04-29T04:07:30.758Z,9.711564
2023-04-29T04:08:30.741Z,9.711534
2023-04-29T04:09:30.734Z,9.711613
2023-04-29T04:10:30.746Z,9.711625
2023-04-29T04:11:30.709Z,9.711600
2023-04-29T04:12:30.716Z,9.711601
2023-04-29T04:13:30.709Z,9.711496
2023-04-29T04:14:30.700Z,9.711563
2023-04-29T04:15:30.695Z,9.711540
2023-04-29T04:16:30.725Z,9.711540
2023-04-29T04:17:30.670Z,9.711601
2023-04-29T04:18:30.657Z,9.711652
2023-04-29T04:19:31.662Z,9.711545
2023-04-29T04:20:30.634Z,9.711602
2023-04-29T04:21:30.676Z,9.711615
2023-04-29T04:22:30.624Z,9.711609
2023-04-29T04:23:30.625Z,9.711594
2023-04-29T04:24:30.617Z,9.711718
2023-04-29T04:25:30.619Z,9.711681
2023-04-29T04:26:30.625Z,9.711581
2023-04-29T04:27:30.581Z,9.711607
2023-04-29T04:28:30.599Z,9.711500
2023-04-29T04:29:30.655Z,9.711575
2023-04-29T04:30:30.563Z,9.711795
2023-04-29T04:31:30.603Z,9.711886
2023-04-29T04:32:31.316Z,9.711559
2023-04-29T04:33:30.573Z,9.711576
2023-04-29T04:34:30.519Z,9.711740
2023-04-29T04:35:30.557Z,9.711606
2023-04-29T04:36:30.515Z,9.711777
2023-04-29T04:37:30.519Z,9.711668
2023-04-29T04:38:30.520Z,9.711753
2023-04-29T04:39:30.502Z,9.711706
2023-04-29T04:40:30.489Z,9.711659
2023-04-29T04:41:30.509Z,9.711766
2023-04-29T04:42:30.474Z,9.711658
2023-04-29T04:43:30.459Z,9.711760
2023-04-29T04:44:30.471Z,9.711782
2023-04-29T04:45:30.475Z,9.711622
2023-04-29T04:46:30.444Z,9.711695
2023-04-29T04:47:30.461Z,9.711762
2023-04-29T04:48:30.449Z,9.711692
2023-04-29T04:49:30.445Z,9.711641
2023-04-29T04:50:31.376Z,9.711717
2023-04-29T04:51:30.421Z,9.711699
2023-04-29T04:52:30.394Z,9.711717
2023-04-29T04:53:30.371Z,9.711706
2023-04-29T04:54:30.384Z,9.711638
2023-04-29T04:55:31.379Z,9.711661
2023-04-29T04:56:30.356Z,9.711716
2023-04-29T04:57:30.392Z,9.711671
2023-04-29T04:58:30.345Z,9.711735
2023-04-29T04:59:30.331Z,9.711606
2023-04-29T05:00:30.371Z,9.711549
2023-04-29T05:01:30.380Z,9.711589
2023-04-29T05:02:30.422Z,9.711695
2023-04-29T05:03:30.561Z,9.711538
2023-04-29T05:04:30.374Z,9.711626
2023-04-29T05:05:30.279Z,9.711647
2023-04-29T05:06:30.273Z,9.711655
2023-04-29T05:07:30.286Z,9.711620
2023-04-29T05:08:30.264Z,9.711618
2023-04-29T05:09:30.271Z,9.711635
2023-04-29T05:10:30.244Z,9.711598
2023-04-29T05:11:30.246Z,9.711629
2023-04-29T05:12:30.234Z,9.711667
2023-04-29T05:13:30.219Z,9.711657
2023-04-29T05:14:30.228Z,9.711680
2023-04-29T05:15:30.212Z,9.711659
2023-04-29T05:16:30.279Z,9.711668
2023-04-29T05:17:30.238Z,9.711721
2023-04-29T05:18:30.203Z,9.711691
2023-04-29T05:19:30.181Z,9.711716
2023-04-29T05:20:30.797Z,9.711703
2023-04-29T05:21:30.176Z,9.711646
2023-04-29T05:22:30.149Z,9.711712
2023-04-29T05:23:30.179Z,9.711724
2023-04-29T05:24:31.864Z,9.711745
2023-04-29T05:25:31.139Z,9.711719
2023-04-29T05:26:30.121Z,9.711746
2023-04-29T05:27:30.109Z,9.711810
2023-04-29T05:28:30.180Z,9.711690
2023-04-29T05:29:30.119Z,9.711728
2023-04-29T05:30:30.106Z,9.711774
2023-04-29T05:31:30.134Z,9.711753
2023-04-29T05:32:30.116Z,9.711761
2023-04-29T05:33:30.117Z,9.711690
2023-04-29T05:34:30.075Z,9.711659
2023-04-29T05:35:30.799Z,9.711554
2023-04-29T05:36:30.111Z,9.711630
2023-04-29T05:37:30.060Z,9.711657
2023-04-29T05:38:30.021Z,9.711502
2023-04-29T05:39:30.020Z,9.711671
2023-04-29T05:40:30.004Z,9.711740
2023-04-29T05:41:30.017Z,9.711589
2023-04-29T05:42:30.000Z,9.711856
2023-04-29T05:43:29.976Z,9.711790
2023-04-29T05:44:29.978Z,9.711794
2023-04-29T05:45:29.965Z,9.711656
2023-04-29T05:46:30.426Z,9.711781
2023-04-29T05:47:30.120Z,9.711976
2023-04-29T05:48:29.981Z,9.711792
2023-04-29T05:49:31.944Z,9.711902
2023-04-29T05:50:29.939Z,9.711680
2023-04-29T05:51:30.005Z,9.711791
2023-04-29T05:52:29.898Z,9.711724
2023-04-29T05:53:30.913Z,9.711567
2023-04-29T05:54:29.945Z,9.711710
2023-04-29T05:55:29.893Z,9.711739
2023-04-29T05:56:29.871Z,9.711742
2023-04-29T05:57:29.859Z,9.711625
2023-04-29T05:58:31.401Z,9.711519
2023-04-29T05:59:29.846Z,9.711554
2023-04-29T06:00:29.860Z,9.711556
2023-04-29T06:01:29.832Z,9.711571
2023-04-29T06:02:29.912Z,9.711642
2023-04-29T06:03:32.662Z,9.711730
2023-04-29T06:04:31.999Z,9.711760
2023-04-29T06:05:31.774Z,9.711819
2023-04-29T06:06:30.988Z,9.711892
2023-04-29T06:07:29.844Z,9.711957
2023-04-29T06:08:29.823Z,9.711783
2023-04-29T06:09:29.812Z,9.711793
2023-04-29T06:10:29.798Z,9.711789
2023-04-29T06:11:29.763Z,9.711804
2023-04-29T06:12:29.760Z,9.711843
2023-04-29T06:13:29.729Z,9.711961
2023-04-29T06:14:29.735Z,9.712004
2023-04-29T06:15:29.723Z,9.712054
2023-04-29T06:16:36.362Z,9.711809
2023-04-29T06:17:29.777Z,9.711747
2023-04-29T06:18:29.699Z,9.711836
2023-04-29T06:19:30.434Z,9.711843
2023-04-29T06:20:29.685Z,9.711778
2023-04-29T06:21:29.680Z,9.711748
2023-04-29T06:22:29.675Z,9.712000
2023-04-29T06:23:29.666Z,9.712120
2023-04-29T06:24:29.641Z,9.712205
2023-04-29T06:25:29.648Z,9.711924
2023-04-29T06:26:29.628Z,9.712132
2023-04-29T06:27:29.612Z,9.712318
2023-04-29T06:28:29.611Z,9.712336
2023-04-29T06:29:29.604Z,9.712265
2023-04-29T06:30:29.593Z,9.712979
2023-04-29T06:31:29.638Z,9.713083
2023-04-29T06:32:29.636Z,9.712755
2023-04-29T06:33:29.601Z,9.712306
2023-04-29T06:34:29.558Z,9.712111
2023-04-29T06:35:29.563Z,9.712146
2023-04-29T06:36:29.545Z,9.712087
2023-04-29T06:37:29.562Z,9.712152
2023-04-29T06:38:29.526Z,9.712313
2023-04-29T06:39:29.523Z,9.712358
2023-04-29T06:40:29.542Z,9.712193
2023-04-29T06:41:29.515Z,9.711946
2023-04-29T06:42:29.498Z,9.712074
2023-04-29T06:43:29.506Z,9.711913
2023-04-29T06:44:29.491Z,9.711667
2023-04-29T06:45:29.486Z,9.711868
2023-04-29T06:46:29.538Z,9.711896
2023-04-29T06:47:29.484Z,9.711749
2023-04-29T06:48:29.438Z,9.711748
2023-04-29T06:49:29.441Z,9.711749
2023-04-29T06:50:29.431Z,9.711352
2023-04-29T06:51:29.424Z,9.711956
2023-04-29T06:52:29.416Z,9.712232
2023-04-29T06:53:29.402Z,9.712261
2023-04-29T06:54:29.413Z,9.712040
2023-04-29T06:55:29.411Z,9.712043
2023-04-29T06:56:29.964Z,9.712161
2023-04-29T06:57:29.368Z,9.711668
2023-04-29T06:58:30.361Z,9.711915
2023-04-29T06:59:29.377Z,9.711992
2023-04-29T07:00:29.356Z,9.711877
2023-04-29T07:01:29.394Z,9.711911
2023-04-29T07:02:29.473Z,9.711937
2023-04-29T07:03:29.608Z,9.711724
2023-04-29T07:04:29.429Z,9.711704
2023-04-29T07:05:29.321Z,9.711625
2023-04-29T07:06:29.301Z,9.711653
2023-04-29T07:07:29.294Z,9.711703
2023-04-29T07:08:29.294Z,9.711759
2023-04-29T07:09:29.285Z,9.711788
2023-04-29T07:10:29.308Z,9.711703
2023-04-29T07:11:30.884Z,9.711705
2023-04-29T07:12:29.249Z,9.711611
2023-04-29T07:13:29.238Z,9.711677
2023-04-29T07:14:29.270Z,9.711722
2023-04-29T07:15:29.241Z,9.711753
2023-04-29T07:16:29.270Z,9.711757
2023-04-29T07:17:29.270Z,9.711809
2023-04-29T07:18:29.206Z,9.711717
2023-04-29T07:19:29.452Z,9.711782
2023-04-29T07:20:29.201Z,9.711802
2023-04-29T07:21:29.179Z,9.711706
2023-04-29T07:22:29.184Z,9.711751
2023-04-29T07:23:29.165Z,9.711753
2023-04-29T07:24:29.153Z,9.711680
2023-04-29T07:25:29.177Z,9.711882
2023-04-29T07:26:29.152Z,9.711896
2023-04-29T07:27:29.157Z,9.711762
2023-04-29T07:28:29.116Z,9.711705
2023-04-29T07:29:29.115Z,9.711567
2023-04-29T07:30:29.113Z,9.711540
2023-04-29T07:31:29.167Z,9.711597
2023-04-29T07:32:29.121Z,9.711699
2023-04-29T07:33:29.089Z,9.711812
2023-04-29T07:34:29.086Z,9.711780
2023-04-29T07:35:29.064Z,9.711746
2023-04-29T07:36:29.073Z,9.711758
2023-04-29T07:37:29.039Z,9.711611
2023-04-29T07:38:29.038Z,9.711771
2023-04-29T07:39:29.028Z,9.711655
2023-04-29T07:40:29.016Z,9.711770
2023-04-29T07:41:29.015Z,9.711840
2023-04-29T07:42:29.003Z,9.711679
2023-04-29T07:43:29.033Z,9.711638
2023-04-29T07:44:28.980Z,9.711787
2023-04-29T07:45:29.014Z,9.711715
2023-04-29T07:46:28.995Z,9.711782
2023-04-29T07:47:28.983Z,9.711759
2023-04-29T07:48:29.060Z,9.711680
2023-04-29T07:49:29.956Z,9.711729
2023-04-29T07:50:29.376Z,9.711880
2023-04-29T07:51:29.124Z,9.711806
2023-04-29T07:52:29.017Z,9.711771
2023-04-29T07:53:28.998Z,9.711911
2023-04-29T07:54:28.983Z,9.711979
2023-04-29T07:55:28.906Z,9.712012
2023-04-29T07:56:28.895Z,9.712015
2023-04-29T07:57:28.883Z,9.711953
2023-04-29T07:58:28.864Z,9.711957
2023-04-29T07:59:28.897Z,9.712061
2023-04-29T08:00:28.861Z,9.712071
2023-04-29T08:01:28.861Z,9.711877
2023-04-29T08:02:28.992Z,9.711614
2023-04-29T08:03:28.936Z,9.711552
2023-04-29T08:04:29.020Z,9.711526
2023-04-29T08:05:29.085Z,9.711517
2023-04-29T08:06:29.836Z,9.711691
2023-04-29T08:07:28.802Z,9.711749
2023-04-29T08:08:28.786Z,9.711742
2023-04-29T08:09:28.786Z,9.711776
2023-04-29T08:10:28.771Z,9.711772
2023-04-29T08:11:28.762Z,9.711766
2023-04-29T08:12:28.753Z,9.711761
2023-04-29T08:13:28.760Z,9.711783
2023-04-29T08:14:28.743Z,9.711828
2023-04-29T08:15:28.744Z,9.711846
2023-04-29T08:16:28.763Z,9.711823
2023-04-29T08:17:28.728Z,9.711840
2023-04-29T08:18:28.705Z,9.711795
2023-04-29T08:19:28.690Z,9.711813
2023-04-29T08:20:28.702Z,9.711759
2023-04-29T08:21:28.678Z,9.711721
2023-04-29T08:22:28.680Z,9.711679
2023-04-29T08:23:28.679Z,9.711857
2023-04-29T08:24:28.655Z,9.711760
2023-04-29T08:25:28.657Z,9.711872
2023-04-29T08:26:28.654Z,9.711800
2023-04-29T08:27:28.776Z,9.711914
2023-04-29T08:28:28.625Z,9.711808
2023-04-29T08:29:28.684Z,9.711827
2023-04-29T08:30:28.622Z,9.711813
2023-04-29T08:31:28.665Z,9.711820
2023-04-29T08:32:28.642Z,9.711740
2023-04-29T08:33:28.575Z,9.711801
2023-04-29T08:34:28.571Z,9.711776
2023-04-29T08:35:28.581Z,9.711832
2023-04-29T08:36:28.558Z,9.711810
2023-04-29T08:37:28.542Z,9.711797
2023-04-29T08:38:28.540Z,9.711841
2023-04-29T08:39:28.544Z,9.711806
2023-04-29T08:40:28.534Z,9.711773
2023-04-29T08:41:28.509Z,9.711807
2023-04-29T08:42:28.508Z,9.711767
2023-04-29T08:43:28.497Z,9.711841
2023-04-29T08:44:28.513Z,9.711814
2023-04-29T08:45:28.551Z,9.711806
2023-04-29T08:46:28.583Z,9.711841
2023-04-29T08:47:28.558Z,9.711775
2023-04-29T08:48:28.520Z,9.711796
2023-04-29T08:49:28.458Z,9.711779
2023-04-29T08:50:28.437Z,9.711757
2023-04-29T08:51:28.440Z,9.711769
2023-04-29T08:52:28.423Z,9.711882
2023-04-29T08:53:28.413Z,9.711883
2023-04-29T08:54:28.750Z,9.711800
2023-04-29T08:55:28.417Z,9.711797
2023-04-29T08:56:28.409Z,9.711745
2023-04-29T08:57:28.403Z,9.711777
2023-04-29T08:58:28.373Z,9.711569
2023-04-29T08:59:28.356Z,9.711653
2023-04-29T09:00:30.012Z,9.711610
2023-04-29T09:01:28.410Z,9.711713
2023-04-29T09:02:28.441Z,9.711754
2023-04-29T09:03:28.376Z,9.711682
2023-04-29T09:04:28.356Z,9.711667
2023-04-29T09:05:28.315Z,9.711692
2023-04-29T09:06:28.308Z,9.711759
2023-04-29T09:07:28.313Z,9.711717
2023-04-29T09:08:28.328Z,9.711815
2023-04-29T09:09:29.284Z,9.711851
2023-04-29T09:10:28.965Z,9.711800
2023-04-29T09:11:28.271Z,9.711589
2023-04-29T09:12:28.268Z,9.711657
2023-04-29T09:13:28.254Z,9.711797
2023-04-29T09:14:28.246Z,9.711357
2023-04-29T09:15:28.238Z,9.711490
2023-04-29T09:16:28.292Z,9.711449
2023-04-29T09:17:28.259Z,9.711394
2023-04-29T09:18:28.205Z,9.711574
2023-04-29T09:19:28.224Z,9.711757
2023-04-29T09:20:28.196Z,9.711647
2023-04-29T09:21:28.197Z,9.711381
2023-04-29T09:22:28.217Z,9.711472
2023-04-29T09:23:28.170Z,9.711564
2023-04-29T09:24:28.173Z,9.711535
2023-04-29T09:25:28.172Z,9.711660
2023-04-29T09:26:28.150Z,9.711926
2023-04-29T09:27:28.142Z,9.711632
2023-04-29T09:28:28.129Z,9.711639
2023-04-29T09:29:28.949Z,9.711665
2023-04-29T09:30:28.129Z,9.712200
2023-04-29T09:31:28.184Z,9.712326
2023-04-29T09:32:28.157Z,9.712106
2023-04-29T09:33:28.093Z,9.711784
2023-04-29T09:34:28.095Z,9.711710
2023-04-29T09:35:28.111Z,9.711842
2023-04-29T09:36:28.077Z,9.711844
2023-04-29T09:37:28.151Z,9.712125
2023-04-29T09:38:28.046Z,9.712029
2023-04-29T09:39:28.893Z,9.712191
2023-04-29T09:40:28.034Z,9.712103
2023-04-29T09:41:28.031Z,9.712120
2023-04-29T09:42:28.029Z,9.711990
2023-04-29T09:43:28.013Z,9.712196
2023-04-29T09:44:32.967Z,9.711908
2023-04-29T09:45:27.994Z,9.711756
2023-04-29T09:46:28.016Z,9.711706
2023-04-29T09:47:29.523Z,9.711874
2023-04-29T09:48:29.029Z,9.712313
2023-04-29T09:49:27.989Z,9.712420
2023-04-29T09:50:29.514Z,9.711905
2023-04-29T09:51:27.964Z,9.711670
2023-04-29T09:52:29.591Z,9.711411
2023-04-29T09:53:27.939Z,9.711240
2023-04-29T09:54:27.920Z,9.711348
2023-04-29T09:55:27.920Z,9.711871
2023-04-29T09:56:27.903Z,9.711816
2023-04-29T09:57:27.895Z,9.711792
2023-04-29T09:58:27.896Z,9.711748
2023-04-29T09:59:27.894Z,9.711725
2023-04-29T10:00:29.500Z,9.711712
2023-04-29T10:01:27.911Z,9.711708
2023-04-29T10:02:27.988Z,9.711715
2023-04-29T10:03:27.925Z,9.711679
2023-04-29T10:04:27.894Z,9.711735
2023-04-29T10:05:27.836Z,9.711799
2023-04-29T10:06:27.822Z,9.711700
2023-04-29T10:07:27.827Z,9.711718
2023-04-29T10:08:27.810Z,9.711735
2023-04-29T10:09:27.810Z,9.711698
2023-04-29T10:10:29.548Z,9.711774
2023-04-29T10:11:27.787Z,9.711599
2023-04-29T10:12:27.797Z,9.711642
2023-04-29T10:13:29.407Z,9.711628
2023-04-29T10:14:28.763Z,9.711575
2023-04-29T10:15:28.458Z,9.711672
2023-04-29T10:16:27.791Z,9.711620
2023-04-29T10:17:27.731Z,9.711673
2023-04-29T10:18:27.769Z,9.711641
2023-04-29T10:19:27.753Z,9.711592
2023-04-29T10:20:27.718Z,9.711663
2023-04-29T10:21:27.753Z,9.711608
2023-04-29T10:22:28.511Z,9.711588
2023-04-29T10:23:27.697Z,9.711613
2023-04-29T10:24:27.681Z,9.711655
2023-04-29T10:25:27.677Z,9.711688
2023-04-29T10:26:27.670Z,9.711655
2023-04-29T10:27:27.656Z,9.711606
2023-04-29T10:28:27.645Z,9.711538
2023-04-29T10:29:27.661Z,9.711522
2023-04-29T10:30:27.648Z,9.711559
2023-04-29T10:31:27.690Z,9.711581
2023-04-29T10:32:28.845Z,9.711592
2023-04-29T10:33:28.629Z,9.711551
2023-04-29T10:34:27.610Z,9.711532
2023-04-29T10:35:27.594Z,9.711545
2023-04-29T10:36:27.598Z,9.711604
2023-04-29T10:37:27.596Z,9.711574
2023-04-29T10:38:27.583Z,9.711529
2023-04-29T10:39:27.551Z,9.711538
2023-04-29T10:40:28.531Z,9.711556
2023-04-29T10:41:27.568Z,9.711530
2023-04-29T10:42:28.107Z,9.711545
2023-04-29T10:43:27.537Z,9.711584
2023-04-29T10:44:27.517Z,9.711548
2023-04-29T10:45:27.591Z,9.711550
2023-04-29T10:46:27.579Z,9.711632
2023-04-29T10:47:27.529Z,9.711515
2023-04-29T10:48:27.502Z,9.711559
2023-04-29T10:49:27.512Z,9.711668
2023-04-29T10:50:27.478Z,9.711703
2023-04-29T10:51:27.480Z,9.711375
2023-04-29T10:52:27.457Z,9.711561
2023-04-29T10:53:27.448Z,9.711621
2023-04-29T10:54:27.451Z,9.711807
2023-04-29T10:55:27.437Z,9.711761
2023-04-29T10:56:27.436Z,9.711737
2023-04-29T10:57:27.421Z,9.711693
2023-04-29T10:58:27.441Z,9.711626
2023-04-29T10:59:27.418Z,9.711716
2023-04-29T11:00:28.036Z,9.711583
2023-04-29T11:01:27.418Z,9.711665
2023-04-29T11:02:27.614Z,9.711894
2023-04-29T11:03:27.513Z,9.711820
2023-04-29T11:04:27.425Z,9.711600
2023-04-29T11:05:27.861Z,9.711622
2023-04-29T11:06:28.351Z,9.711423
2023-04-29T11:07:27.341Z,9.711062
2023-04-29T11:08:27.610Z,9.711397
2023-04-29T11:09:27.352Z,9.711522
2023-04-29T11:10:27.324Z,9.711667
2023-04-29T11:11:28.385Z,9.711659
2023-04-29T11:12:28.329Z,9.711569
2023-04-29T11:13:27.318Z,9.711699
2023-04-29T11:14:29.052Z,9.712125
2023-04-29T11:15:27.287Z,9.711938
2023-04-29T11:16:27.347Z,9.712184
2023-04-29T11:17:28.507Z,9.711827
2023-04-29T11:18:28.250Z,9.711704
2023-04-29T11:19:27.250Z,9.711680
2023-04-29T11:20:27.245Z,9.711514
2023-04-29T11:21:27.236Z,9.711709
2023-04-29T11:22:27.288Z,9.711542
2023-04-29T11:23:28.506Z,9.711453
2023-04-29T11:24:28.224Z,9.711524
2023-04-29T11:25:27.218Z,9.711568
2023-04-29T11:26:27.198Z,9.711480
2023-04-29T11:27:27.439Z,9.711407
2023-04-29T11:28:27.178Z,9.711497
2023-04-29T11:29:27.970Z,9.711625
2023-04-29T11:30:27.165Z,9.711857
2023-04-29T11:31:28.782Z,9.712434
2023-04-29T11:32:27.247Z,9.712850
2023-04-29T11:33:27.200Z,9.712174
2023-04-29T11:34:27.168Z,9.711940
2023-04-29T11:35:27.121Z,9.711816
2023-04-29T11:36:27.125Z,9.711537
2023-04-29T11:37:27.140Z,9.710993
2023-04-29T11:38:27.106Z,9.711657
2023-04-29T11:39:27.100Z,9.711535
2023-04-29T11:40:27.079Z,9.711658
2023-04-29T11:41:27.452Z,9.711365
2023-04-29T11:42:27.079Z,9.711736
2023-04-29T11:43:27.079Z,9.711815
2023-04-29T11:44:27.056Z,9.712162
2023-04-29T11:45:27.057Z,9.712417
2023-04-29T11:46:27.055Z,9.712396
2023-04-29T11:47:28.126Z,9.712044
2023-04-29T11:48:27.014Z,9.711762
2023-04-29T11:49:27.001Z,9.711523
2023-04-29T11:50:27.053Z,9.711357
2023-04-29T11:51:27.002Z,9.711058
2023-04-29T11:52:26.971Z,9.711090
2023-04-29T11:53:28.053Z,9.711009
2023-04-29T11:54:26.978Z,9.711126
2023-04-29T11:55:26.956Z,9.711069
2023-04-29T11:56:26.970Z,9.711193
2023-04-29T11:57:27.426Z,9.711411
2023-04-29T11:58:26.942Z,9.711651
2023-04-29T11:59:26.926Z,9.711526
2023-04-29T12:00:26.925Z,9.711270
2023-04-29T12:01:27.066Z,9.711065
2023-04-29T12:02:26.977Z,9.711194
2023-04-29T12:03:27.124Z,9.711255
2023-04-29T12:04:27.186Z,9.711100
2023-04-29T12:05:26.990Z,9.711734
2023-04-29T12:06:26.936Z,9.711563
2023-04-29T12:07:26.853Z,9.711402
2023-04-29T12:08:27.554Z,9.711316
2023-04-29T12:09:26.873Z,9.710992
2023-04-29T12:10:26.836Z,9.711050
2023-04-29T12:11:26.857Z,9.711313
2023-04-29T12:12:26.816Z,9.711368
2023-04-29T12:13:27.458Z,9.711432
2023-04-29T12:14:26.829Z,9.711491
2023-04-29T12:15:26.809Z,9.711605
2023-04-29T12:16:27.021Z,9.711547
2023-04-29T12:17:26.796Z,9.711589
2023-04-29T12:18:26.770Z,9.711543
2023-04-29T12:19:26.772Z,9.711618
2023-04-29T12:20:26.771Z,9.711516
2023-04-29T12:21:26.753Z,9.711508
2023-04-29T12:22:27.538Z,9.711602
2023-04-29T12:23:26.756Z,9.711564
2023-04-29T12:24:26.733Z,9.711533
2023-04-29T12:25:26.722Z,9.711699
2023-04-29T12:26:26.713Z,9.711555
2023-04-29T12:27:26.694Z,9.711592
2023-04-29T12:28:26.697Z,9.711596